Time;durP1;ratioP1;P1;durP2;ratioP2;P2;SDS_P1;SDS_P2;PMS_P1;PMS_P2;Temp;Humidity;BMP_temperature;BMP_pressure;BME280_temperature;BME280_humidity;BME280_pressure;Samples;Min_cycle;Max_cycle;Signal;HPM_P1;HPM_P2
2022/09/22 00:01:27;;;;;;;5.40;2.88;;;6.20;99.90;;;5.58;100.00;97934.41;5058996;28;21379;-47
2022/09/22 00:03:57;;;;;;;3.88;2.70;;;6.20;99.90;;;5.58;100.00;97930.91;5051762;28;20079;-48
2022/09/22 00:06:28;;;;;;;4.72;2.30;;;6.20;99.90;;;5.55;100.00;97929.19;5063478;28;20035;-47
2022/09/22 00:09:00;;;;;;;4.60;2.83;;;6.20;99.90;;;5.53;100.00;97931.81;5060174;28;20028;-51
2022/09/22 00:11:29;;;;;;;4.57;3.10;;;6.20;99.90;;;5.50;100.00;97928.34;5065837;28;20028;-46
2022/09/22 00:14:00;;;;;;;5.13;2.78;;;6.20;99.90;;;5.48;100.00;97922.28;5063672;28;20444;-47
2022/09/22 00:16:35;;;;;;;4.55;2.80;;;6.10;99.90;;;5.46;100.00;97918.81;5064117;28;20036;-48
2022/09/22 00:19:04;;;;;;;7.85;2.78;;;6.10;99.90;;;5.45;100.00;97925.75;5065707;28;20032;-48
2022/09/22 00:21:30;;;;;;;4.53;2.70;;;6.10;99.90;;;5.40;100.00;97924.06;5062543;28;20032;-47
2022/09/22 00:23:56;;;;;;;5.32;2.58;;;6.00;99.90;;;5.38;100.00;97921.47;5060765;28;20035;-46
2022/09/22 00:26:23;;;;;;;5.20;2.70;;;6.00;99.90;;;5.37;100.00;97917.13;5065752;28;20405;-47
2022/09/22 00:28:50;;;;;;;8.68;2.92;;;6.00;99.90;;;5.35;100.00;97913.66;5072938;28;20044;-47
2022/09/22 00:31:20;;;;;;;4.38;2.90;;;6.00;99.90;;;5.35;100.00;97916.28;5063332;28;20042;-48
2022/09/22 00:33:46;;;;;;;5.05;2.97;;;6.00;99.90;;;5.32;100.00;97901.47;5067120;28;22549;-46
2022/09/22 00:36:14;;;;;;;6.40;2.75;;;6.00;99.90;;;5.35;100.00;97908.44;5065653;28;20031;-46
2022/09/22 00:38:40;;;;;;;3.42;2.70;;;6.00;99.90;;;5.36;100.00;97910.16;5067117;28;20055;-47
2022/09/22 00:41:11;;;;;;;5.40;2.90;;;6.00;99.90;;;5.38;100.00;97905.78;5065560;28;20036;-48
2022/09/22 00:43:38;;;;;;;2.88;2.28;;;6.00;99.90;;;5.38;100.00;97902.28;5066061;28;20036;-48
2022/09/22 00:46:19;;;;;;;3.53;2.55;;;6.00;99.90;;;5.37;100.00;97893.59;5068764;28;20047;-47
2022/09/22 00:48:52;;;;;;;6.40;2.70;;;6.00;99.90;;;5.39;100.00;97899.69;5066189;28;20020;-47
2022/09/22 00:51:23;;;;;;;3.88;2.65;;;6.00;99.90;;;5.21;100.00;97871.91;5060654;28;20038;-48
2022/09/22 00:53:49;;;;;;;4.28;2.28;;;6.00;99.90;;;5.34;100.00;97896.22;5061940;28;20038;-48
2022/09/22 00:56:24;;;;;;;2.97;2.20;;;6.00;99.90;;;5.28;100.00;97886.69;5059828;28;20054;-50
2022/09/22 00:58:58;;;;;;;4.28;2.22;;;6.00;99.90;;;5.31;100.00;97891.91;5063245;28;20925;-46
2022/09/22 01:01:24;;;;;;;3.25;2.40;;;5.90;99.90;;;5.29;100.00;97891.03;5058919;28;20056;-46
2022/09/22 01:03:50;;;;;;;5.22;2.78;;;5.90;99.90;;;5.28;100.00;97888.44;5068725;28;20127;-50
2022/09/22 01:06:22;;;;;;;3.78;2.33;;;5.90;99.90;;;5.22;100.00;97891.09;5064522;28;20048;-46
2022/09/22 01:08:49;;;;;;;5.50;3.00;;;5.90;99.90;;;5.21;100.00;97894.59;5059835;28;20528;-48
2022/09/22 01:11:17;;;;;;;6.22;2.67;;;5.80;99.90;;;5.15;100.00;97899.00;5045859;28;20181;-49
2022/09/22 01:14:07;;;;;;;4.78;2.83;;;5.80;99.90;;;5.12;100.00;97896.38;5062741;28;20071;-48
2022/09/22 01:16:56;;;;;;;4.47;2.83;;;5.80;99.90;;;5.12;100.00;97904.22;5062383;28;20634;-48
2022/09/22 01:20:03;;;;;;;4.35;3.00;;;5.80;99.90;;;5.08;100.00;97902.53;5066199;28;20228;-48
2022/09/22 01:23:06;;;;;;;6.07;2.40;;;5.70;99.90;;;5.06;100.00;97893.84;5067674;28;20450;-48
2022/09/22 01:26:21;;;;;;;4.65;2.38;;;5.70;99.90;;;5.03;100.00;97899.06;5069187;28;20103;-47
2022/09/22 01:29:02;;;;;;;3.97;2.80;;;5.60;99.90;;;5.00;100.00;97903.44;5067840;28;20369;-48
2022/09/22 01:32:12;;;;;;;3.70;2.70;;;5.60;99.90;;;4.99;100.00;97907.81;5066084;28;20095;-49
2022/09/22 01:35:35;;;;;;;6.25;2.58;;;5.60;99.90;;;4.97;100.00;97897.38;5066692;28;20039;-47
2022/09/22 01:38:48;;;;;;;7.10;2.72;;;5.60;99.90;;;4.92;100.00;97898.28;5069712;28;20493;-49
2022/09/22 01:41:15;;;;;;;4.15;2.47;;;5.60;99.90;;;4.90;100.00;97895.69;5045335;28;20079;-49
2022/09/22 01:43:52;;;;;;;3.13;2.30;;;5.50;99.90;;;4.90;100.00;97892.16;5049579;28;22185;-47
2022/09/22 01:46:37;;;;;;;3.40;2.30;;;5.50;99.90;;;4.83;100.00;97891.38;5063978;28;20028;-48
2022/09/22 01:49:08;;;;;;;5.28;2.50;;;5.50;99.90;;;4.80;100.00;97898.34;5067141;28;20124;-46
2022/09/22 01:51:40;;;;;;;5.05;2.58;;;5.50;99.90;;;4.77;100.00;97899.22;5065716;28;20726;-49
2022/09/22 01:54:32;;;;;;;3.70;2.50;;;5.40;99.90;;;4.72;100.00;97896.66;5064846;28;20610;-49
2022/09/22 01:57:14;;;;;;;3.50;2.28;;;5.40;99.90;;;4.67;100.00;97901.03;5064907;28;20119;-47
2022/09/22 01:59:43;;;;;;;4.32;2.72;;;5.40;99.90;;;4.62;100.00;97900.19;5068370;28;20043;-48
2022/09/22 02:02:22;;;;;;;6.50;2.92;;;5.30;99.90;;;4.58;100.00;97894.13;5067498;28;20021;-50
2022/09/22 02:04:57;;;;;;;4.80;2.60;;;5.20;99.90;;;4.55;100.00;97895.88;5068955;28;20028;-47
2022/09/22 02:07:46;;;;;;;4.07;2.47;;;5.20;99.90;;;4.54;100.00;97896.72;5062163;28;20028;-48
2022/09/22 02:10:17;;;;;;;4.70;2.67;;;5.20;99.90;;;4.51;100.00;97887.19;5067609;28;20568;-48
2022/09/22 02:12:43;;;;;;;4.03;2.75;;;5.10;99.90;;;4.49;100.00;97890.69;5068582;28;20361;-51
2022/09/22 02:15:58;;;;;;;3.83;2.75;;;5.10;99.90;;;4.48;100.00;97886.31;5067367;28;20561;-48
2022/09/22 02:18:00;;;;;;;4.70;2.65;;;5.10;99.90;;;4.44;100.00;97893.31;5063598;28;20036;-48
2022/09/22 02:20:26;;;;;;;5.60;3.10;;;5.10;99.90;;;4.40;100.00;97887.22;5059518;28;20055;-49
2022/09/22 02:22:53;;;;;;;4.25;3.05;;;5.10;99.90;;;4.36;100.00;97884.63;5064236;28;20477;-49
2022/09/22 02:25:21;;;;;;;9.13;6.30;;;5.10;99.90;;;4.39;100.00;97889.84;5061514;28;20032;-51
2022/09/22 02:27:47;;;;;;;14.52;9.98;;;5.00;99.90;;;4.35;100.00;97883.75;5061830;28;20491;-50
2022/09/22 02:30:13;;;;;;;15.70;9.90;;;5.00;99.90;;;4.34;100.00;97874.22;5069177;28;21013;-52
2022/09/22 02:32:45;;;;;;;16.60;9.88;;;5.00;99.90;;;4.35;100.00;97877.69;5059922;28;20032;-51
2022/09/22 02:35:12;;;;;;;14.95;9.10;;;5.00;99.90;;;4.36;100.00;97882.00;5068184;28;20144;-50
2022/09/22 02:38:18;;;;;;;11.43;6.63;;;5.00;99.90;;;4.35;100.00;97878.53;5064995;28;20039;-50
2022/09/22 02:40:59;;;;;;;8.75;5.97;;;5.00;99.90;;;4.34;100.00;97876.81;5060049;28;20047;-52
2022/09/22 02:43:31;;;;;;;10.00;5.40;;;5.00;99.90;;;4.34;100.00;97873.31;5071988;28;20046;-50
2022/09/22 02:46:20;;;;;;;9.57;4.47;;;5.00;99.90;;;4.33;100.00;97874.22;5067493;28;20051;-51
2022/09/22 02:48:50;;;;;;;4.88;3.50;;;5.00;99.90;;;4.33;100.00;97879.44;5063672;28;20066;-52
2022/09/22 02:51:17;;;;;;;5.93;3.53;;;5.00;99.90;;;4.33;100.00;97877.69;5066814;28;20093;-50
2022/09/22 02:53:43;;;;;;;6.40;3.38;;;5.00;99.90;;;4.32;100.00;97877.69;5070061;28;20039;-51
2022/09/22 02:56:09;;;;;;;5.07;3.20;;;5.00;99.90;;;4.31;100.00;97873.38;5074934;28;20031;-50
2022/09/22 02:58:35;;;;;;;4.93;3.03;;;5.00;99.90;;;4.23;100.00;97868.16;5064986;28;20040;-51
2022/09/22 03:01:01;;;;;;;4.55;3.03;;;4.90;99.90;;;4.29;100.00;97873.38;5068944;28;20052;-50
2022/09/22 03:03:27;;;;;;;4.90;2.50;;;4.90;99.90;;;4.25;100.00;97876.84;5070317;28;20028;-51
2022/09/22 03:05:53;;;;;;;5.10;2.90;;;4.90;99.90;;;4.26;100.00;97882.94;5056420;28;20142;-51
2022/09/22 03:08:18;;;;;;;4.82;2.97;;;4.90;99.90;;;4.24;100.00;97869.91;5071810;28;20028;-52
2022/09/22 03:10:44;;;;;;;3.63;2.97;;;4.90;99.90;;;4.22;100.00;97874.25;5063997;28;20044;-50
2022/09/22 03:13:10;;;;;;;4.45;2.70;;;4.90;99.90;;;4.20;100.00;97874.28;5074228;28;20031;-50
2022/09/22 03:15:36;;;;;;;3.80;2.83;;;4.90;99.90;;;4.21;100.00;97872.50;5066083;28;20050;-46
2022/09/22 03:18:02;;;;;;;5.03;3.03;;;4.90;99.90;;;4.18;100.00;97875.13;5068603;28;20156;-51
2022/09/22 03:20:28;;;;;;;5.72;2.70;;;4.80;99.90;;;4.16;100.00;97869.03;5064159;28;20562;-50
2022/09/22 03:22:54;;;;;;;4.80;2.33;;;4.80;99.90;;;4.10;100.00;97864.72;5067124;28;20124;-51
2022/09/22 03:25:20;;;;;;;4.50;2.72;;;4.80;99.90;;;4.08;100.00;97863.88;5068858;28;20081;-49
2022/09/22 03:27:46;;;;;;;3.80;2.60;;;4.80;99.90;;;4.07;100.00;97869.94;5071365;28;20097;-51
2022/09/22 03:30:12;;;;;;;3.50;2.60;;;4.70;99.90;;;4.06;100.00;97864.75;5075359;28;20497;-52
2022/09/22 03:32:38;;;;;;;5.25;3.03;;;4.70;99.90;;;4.04;100.00;97866.47;5065433;28;20433;-51
2022/09/22 03:35:05;;;;;;;4.95;2.50;;;4.70;99.90;;;4.01;100.00;97863.00;5066134;28;20539;-51
2022/09/22 03:37:33;;;;;;;4.07;2.88;;;4.70;99.90;;;3.97;100.00;97861.28;5061964;28;20036;-50
2022/09/22 03:39:59;;;;;;;4.10;2.30;;;4.60;99.90;;;3.95;100.00;97856.97;5064669;28;20023;-52
2022/09/22 03:42:25;;;;;;;4.22;2.60;;;4.60;99.90;;;3.92;100.00;97865.66;5064310;28;20555;-49
2022/09/22 03:44:50;;;;;;;3.72;2.42;;;4.60;99.90;;;3.86;100.00;97863.06;5072695;28;20041;-50
2022/09/22 03:47:16;;;;;;;4.97;2.45;;;4.60;99.90;;;3.82;100.00;97857.00;5064691;28;20039;-51
2022/09/22 03:49:42;;;;;;;4.85;2.60;;;4.50;99.90;;;3.81;100.00;97854.38;5059096;28;20044;-51
2022/09/22 03:52:07;;;;;;;3.38;2.40;;;4.50;99.90;;;3.82;100.00;97856.09;5064912;28;20293;-53
2022/09/22 03:54:35;;;;;;;5.43;2.60;;;4.50;99.90;;;3.82;100.00;97854.38;5065117;28;20063;-49
2022/09/22 03:57:00;;;;;;;3.13;2.17;;;4.50;99.90;;;3.79;100.00;97850.91;5063624;28;20131;-51
2022/09/22 03:59:26;;;;;;;3.83;2.13;;;4.50;99.90;;;3.79;100.00;97856.13;5066734;28;20032;-52
2022/09/22 04:01:52;;;;;;;2.88;2.08;;;4.50;99.90;;;3.73;100.00;97851.81;5068644;28;20090;-52
2022/09/22 04:04:17;;;;;;;3.03;2.05;;;4.50;99.90;;;3.78;100.00;97851.78;5062378;28;20032;-50
2022/09/22 04:06:43;;;;;;;3.78;2.60;;;4.50;99.90;;;3.78;100.00;97855.25;5062254;28;20078;-51
2022/09/22 04:09:09;;;;;;;3.67;2.38;;;4.50;99.90;;;3.73;100.00;97858.75;5068604;28;20930;-52
2022/09/22 04:11:36;;;;;;;5.75;2.40;;;4.50;99.90;;;3.72;100.00;97849.19;5061602;28;20029;-51
2022/09/22 04:14:03;;;;;;;2.17;1.75;;;4.40;99.90;;;3.73;100.00;97853.53;5061541;28;20047;-52
2022/09/22 04:16:30;;;;;;;2.67;1.85;;;4.40;99.90;;;3.69;100.00;97837.00;5070313;28;20080;-51
2022/09/22 04:18:56;;;;;;;2.42;1.80;;;4.40;99.90;;;3.72;100.00;97841.38;5062947;28;20503;-52
2022/09/22 04:21:21;;;;;;;3.30;2.15;;;4.40;99.90;;;3.71;100.00;97845.69;5064614;28;20032;-51
2022/09/22 04:23:47;;;;;;;2.65;2.05;;;4.40;99.90;;;3.66;100.00;97841.38;5068280;28;20032;-51
2022/09/22 04:26:13;;;;;;;4.20;2.47;;;4.40;99.90;;;3.71;100.00;97850.06;5064409;28;20056;-50
2022/09/22 04:28:39;;;;;;;4.13;2.10;;;4.40;99.90;;;3.71;100.00;97847.44;5071090;28;20059;-51
2022/09/22 04:31:04;;;;;;;3.45;2.38;;;4.40;99.90;;;3.72;100.00;97849.19;5070381;28;20117;-51
2022/09/22 04:33:30;;;;;;;7.22;2.88;;;4.40;99.90;;;3.72;100.00;97851.81;5059725;28;20115;-53
2022/09/22 04:35:56;;;;;;;4.07;2.78;;;4.40;99.90;;;3.72;100.00;97852.66;5055573;28;20852;-52
2022/09/22 04:38:21;;;;;;;4.65;3.10;;;4.40;99.90;;;3.71;100.00;97863.97;5065969;28;20043;-51
2022/09/22 04:40:48;;;;;;;4.47;2.97;;;4.40;99.90;;;3.72;100.00;97857.88;5063289;28;20032;-52
2022/09/22 04:43:14;;;;;;;6.00;2.95;;;4.40;99.90;;;3.72;100.00;97859.63;5066665;28;20038;-52
2022/09/22 04:45:44;;;;;;;4.70;2.65;;;4.40;99.90;;;3.70;100.00;97858.78;5062655;28;20781;-51
2022/09/22 04:48:10;;;;;;;2.80;2.08;;;4.40;99.90;;;3.73;100.00;97853.53;5072199;28;20630;-51
2022/09/22 04:50:36;;;;;;;3.53;2.58;;;4.40;99.90;;;3.74;100.00;97847.44;5073415;28;20059;-50
2022/09/22 04:53:01;;;;;;;5.55;2.95;;;4.40;99.90;;;3.72;100.00;97847.44;5070451;28;20075;-51
2022/09/22 04:55:27;;;;;;;4.47;3.05;;;4.40;99.90;;;3.72;100.00;97851.81;5068240;28;20457;-50
2022/09/22 04:57:56;;;;;;;6.78;3.05;;;4.40;99.90;;;3.73;100.00;97850.91;5070905;28;20039;-50
2022/09/22 05:00:26;;;;;;;7.07;3.60;;;4.40;99.90;;;3.75;100.00;97847.44;5064649;28;20043;-52
2022/09/22 05:02:51;;;;;;;4.35;3.30;;;4.50;99.90;;;3.76;100.00;97846.56;5072511;28;20127;-50
2022/09/22 05:05:18;;;;;;;6.68;3.75;;;4.50;99.90;;;3.79;100.00;97854.38;5061112;28;20513;-48
2022/09/22 05:07:47;;;;;;;6.28;3.40;;;4.50;99.90;;;3.79;100.00;97850.91;5067233;28;20183;-51
2022/09/22 05:10:16;;;;;;;4.95;3.50;;;4.50;99.90;;;3.79;100.00;97856.13;5060854;28;21273;-51
2022/09/22 05:12:43;;;;;;;7.57;3.50;;;4.50;99.90;;;3.77;100.00;97847.44;5070189;28;20046;-51
2022/09/22 05:15:12;;;;;;;5.20;3.53;;;4.50;99.90;;;3.79;100.00;97857.00;5054326;28;20146;-49
2022/09/22 05:17:45;;;;;;;7.60;3.50;;;4.50;99.90;;;3.82;100.00;97862.22;5063412;28;20156;-48
2022/09/22 05:20:27;;;;;;;5.32;3.20;;;4.50;99.90;;;3.81;100.00;97852.63;5060945;28;20024;-52
2022/09/22 05:22:53;;;;;;;8.68;3.53;;;4.50;99.90;;;3.83;100.00;97857.84;5072432;28;20035;-49
2022/09/22 05:25:19;;;;;;;5.28;3.47;;;4.50;99.90;;;3.83;100.00;97857.84;5066219;28;20032;-51
2022/09/22 05:27:50;;;;;;;5.05;3.22;;;4.50;99.90;;;3.85;100.00;97863.94;5063002;28;20030;-49
2022/09/22 05:30:17;;;;;;;4.93;3.10;;;4.50;99.90;;;3.89;100.00;97864.78;5068280;28;20024;-49
2022/09/22 05:32:44;;;;;;;6.75;3.58;;;4.60;99.90;;;3.92;100.00;97872.63;5074810;28;20021;-51
2022/09/22 05:35:17;;;;;;;7.13;3.40;;;4.60;99.90;;;3.95;100.00;97870.88;5065485;28;20047;-49
2022/09/22 05:37:46;;;;;;;6.50;3.55;;;4.70;99.90;;;4.05;100.00;97874.31;5058911;28;20039;-51
2022/09/22 05:40:13;;;;;;;5.63;3.47;;;4.70;99.90;;;4.11;100.00;97873.41;5067918;28;20505;-52
2022/09/22 05:42:46;;;;;;;6.68;3.60;;;4.80;99.90;;;4.19;100.00;97876.88;5067312;28;20305;-47
2022/09/22 05:45:13;;;;;;;5.40;3.80;;;4.90;99.90;;;4.25;100.00;97876.84;5075116;28;20073;-49
2022/09/22 05:47:39;;;;;;;7.72;4.07;;;4.90;99.90;;;4.31;100.00;97875.97;5077157;28;20020;-51
2022/09/22 05:50:06;;;;;;;7.65;4.22;;;5.00;99.90;;;4.35;100.00;97877.69;5074924;28;20024;-47
2022/09/22 05:52:33;;;;;;;5.38;4.00;;;5.00;99.90;;;4.39;100.00;97880.25;5069497;28;20040;-47
2022/09/22 05:54:58;;;;;;;5.85;3.63;;;5.10;99.90;;;4.44;100.00;97872.41;5069716;28;20468;-50
2022/09/22 05:57:26;;;;;;;5.43;3.75;;;5.20;99.90;;;4.49;100.00;97875.03;5075300;28;20036;-47
2022/09/22 05:59:53;;;;;;;5.78;3.70;;;5.20;99.90;;;4.54;100.00;97868.88;5066730;28;20064;-49
2022/09/22 06:02:19;;;;;;;6.28;3.70;;;5.20;99.90;;;4.62;100.00;97875.81;5063401;28;20035;-49
2022/09/22 06:04:45;;;;;;;6.45;4.07;;;5.30;99.90;;;4.67;100.00;97877.53;5062197;28;20036;-49
2022/09/22 06:07:10;;;;;;;6.93;3.97;;;5.40;99.90;;;4.73;100.00;97880.09;5068776;28;20024;-50
2022/09/22 06:09:36;;;;;;;11.52;4.40;;;5.40;99.90;;;4.75;100.00;97870.47;5067835;28;20040;-50
2022/09/22 06:12:02;;;;;;;5.18;3.60;;;5.50;99.90;;;4.83;100.00;97873.06;5073729;28;20470;-52
2022/09/22 06:14:28;;;;;;;6.60;4.10;;;5.50;99.90;;;4.89;100.00;97880.00;5069676;28;20864;-49
2022/09/22 06:16:54;;;;;;;6.35;3.22;;;5.60;99.90;;;4.93;100.00;97874.72;5073144;28;20097;-48
2022/09/22 06:19:22;;;;;;;6.82;3.22;;;5.70;99.90;;;5.00;100.00;97875.56;5072461;28;20032;-52
2022/09/22 06:21:49;;;;;;;4.93;2.90;;;5.70;99.90;;;5.04;100.00;97877.25;5072156;28;21304;-50
2022/09/22 06:24:15;;;;;;;5.80;3.30;;;5.80;99.90;;;5.08;100.00;97878.09;5072164;28;20078;-49
2022/09/22 06:26:40;;;;;;;5.85;3.60;;;5.80;99.90;;;5.13;100.00;97884.19;5074064;28;20830;-47
2022/09/22 06:29:07;;;;;;;4.25;2.90;;;5.90;99.90;;;5.22;100.00;97883.25;5072438;28;20024;-51
2022/09/22 06:31:33;;;;;;;5.47;3.58;;;5.90;99.90;;;5.28;100.00;97877.97;5072205;28;20043;-51
2022/09/22 06:33:58;;;;;;;4.90;3.70;;;6.00;99.90;;;5.38;100.00;97879.63;5075243;28;20077;-50
2022/09/22 06:36:30;;;;;;;4.72;3.15;;;6.10;99.90;;;5.46;100.00;97871.72;5071516;28;20043;-50
2022/09/22 06:38:59;;;;;;;6.93;4.35;;;6.20;99.90;;;5.54;100.00;97878.63;5076055;28;20173;-48
2022/09/22 06:41:26;;;;;;;6.10;4.68;;;6.30;99.90;;;5.64;100.00;97881.16;5070090;28;20217;-49
2022/09/22 06:43:55;;;;;;;9.63;4.65;;;6.40;99.90;;;5.74;100.00;97878.44;5077336;28;20673;-47
2022/09/22 06:46:26;;;;;;;5.47;4.53;;;6.50;99.90;;;5.81;100.00;97873.97;5070776;28;20036;-49
2022/09/22 06:48:56;;;;;;;7.15;4.40;;;6.60;99.90;;;5.91;100.00;97875.63;5077074;28;20035;-48
2022/09/22 06:51:34;;;;;;;7.72;4.93;;;6.60;99.90;;;6.02;100.00;97872.06;5069963;28;20200;-52
2022/09/22 06:54:04;;;;;;;7.03;4.70;;;6.70;99.90;;;6.10;100.00;97876.31;5071406;28;20489;-49
2022/09/22 06:56:39;;;;;;;6.50;4.22;;;6.90;99.90;;;6.21;100.00;97872.69;5067172;28;20043;-47
2022/09/22 06:59:09;;;;;;;9.15;4.40;;;6.90;99.90;;;6.30;100.00;97873.47;5069112;28;20085;-47
2022/09/22 07:01:35;;;;;;;9.48;4.65;;;7.10;99.90;;;6.41;100.00;97873.34;5060660;28;20032;-47
2022/09/22 07:04:01;;;;;;;9.73;4.95;;;7.20;99.90;;;6.49;100.00;97866.22;5072957;28;20036;-51
2022/09/22 07:06:27;;;;;;;8.35;4.13;;;7.20;99.90;;;6.59;100.00;97868.75;5067486;28;20031;-47
2022/09/22 07:08:52;;;;;;;8.85;4.22;;;7.30;99.90;;;6.69;100.00;97870.34;5069428;28;20039;-48
2022/09/22 07:11:22;;;;;;;8.75;4.65;;;7.40;99.90;;;6.79;100.00;97873.72;5054906;28;20512;-51
2022/09/22 07:13:52;;;;;;;7.32;4.25;;;7.50;99.90;;;6.86;100.00;97873.59;5069509;28;20056;-53
2022/09/22 07:16:21;;;;;;;6.53;3.60;;;7.60;99.90;;;6.95;100.00;97871.75;5072295;28;20040;-52
2022/09/22 07:18:51;;;;;;;5.43;3.35;;;7.70;99.90;;;7.03;100.00;97868.13;5072720;28;20279;-51
2022/09/22 07:21:23;;;;;;;5.43;3.55;;;7.80;99.90;;;7.11;100.00;97872.38;5073019;28;20508;-52
2022/09/22 07:23:53;;;;;;;6.40;3.50;;;7.90;99.90;;;7.22;100.00;97875.69;5065842;28;20027;-50
2022/09/22 07:26:25;;;;;;;7.22;3.40;;;7.90;99.90;;;7.32;100.00;97873.75;5070969;28;20027;-47
2022/09/22 07:28:57;;;;;;;7.60;3.90;;;8.00;99.90;;;7.40;100.00;97877.16;5073330;22;20127;-38
2022/09/22 07:31:26;;;;;;;6.45;3.55;;;8.10;99.90;;;7.50;100.00;97873.47;5055418;28;20772;-38
2022/09/22 07:33:53;;;;;;;4.80;3.25;;;8.20;99.90;;;7.62;100.00;97873.25;5055507;28;20032;-38
2022/09/22 07:36:27;;;;;;;5.50;3.10;;;8.30;99.90;;;7.60;100.00;97855.81;5044147;28;20033;-38
2022/09/22 07:38:56;;;;;;;4.13;2.83;;;8.40;99.90;;;7.84;100.00;97886.88;5054834;28;20032;-38
2022/09/22 07:41:27;;;;;;;6.72;3.38;;;8.50;99.90;;;7.93;100.00;97874.44;5051742;28;20036;-38
2022/09/22 07:45:11;;;;;;;7.35;3.58;;;8.60;99.90;;;8.03;100.00;97878.63;5052578;28;20041;-39
2022/09/22 07:46:42;;;;;;;7.20;3.50;;;8.70;99.90;;;8.11;100.00;97881.09;5051320;28;20036;-39
2022/09/22 07:49:08;;;;;;;7.32;4.15;;;8.80;99.90;;;8.22;100.00;97882.66;5049973;28;20042;-39
2022/09/22 07:51:34;;;;;;;4.75;3.13;;;8.90;99.90;;;8.33;100.00;97884.19;5053686;28;20535;-38
2022/09/22 07:54:08;;;;;;;6.30;3.25;;;9.00;99.90;;;8.40;100.00;97881.41;5054597;28;20052;-39
2022/09/22 07:56:40;;;;;;;5.25;3.50;;;9.10;99.90;;;8.46;100.00;97869.94;5048602;28;20101;-39
2022/09/22 07:59:10;;;;;;;6.38;2.97;;;9.20;99.90;;;8.62;100.00;97875.72;5045757;28;20664;-39
2022/09/22 08:01:40;;;;;;;6.32;3.42;;;9.30;99.90;;;8.73;100.00;97880.75;5049179;28;20048;-39
2022/09/22 08:04:06;;;;;;;6.82;3.88;;;9.40;99.90;;;8.83;100.00;97882.28;5052888;28;20024;-39
2022/09/22 08:06:34;;;;;;;8.60;4.28;;;9.50;99.90;;;8.92;100.00;97871.56;5052301;28;20069;-39
2022/09/22 08:09:05;;;;;;;6.53;3.63;;;9.60;99.90;;;9.04;100.00;97874.81;5043801;28;20032;-37
2022/09/22 08:11:31;;;;;;;8.57;3.92;;;9.70;99.90;;;9.16;100.00;97871.88;5035770;28;20032;-38
2022/09/22 08:14:00;;;;;;;9.43;4.32;;;9.80;99.90;;;9.27;100.00;97869.84;5052632;28;23917;-38
2022/09/22 08:16:29;;;;;;;7.35;4.25;;;9.90;99.90;;;9.39;100.00;97868.72;5042734;28;20039;-38
2022/09/22 08:18:57;;;;;;;6.07;4.05;;;10.00;99.90;;;9.51;100.00;97862.25;5054145;28;20548;-38
2022/09/22 08:21:34;;;;;;;7.40;4.28;;;10.10;99.90;;;9.70;100.00;97863.50;5049236;28;20051;-38
2022/09/22 08:24:08;;;;;;;9.93;4.47;;;10.30;99.90;;;9.86;100.00;97866.59;5052209;28;20041;-38
2022/09/22 08:26:35;;;;;;;10.05;4.18;;;10.40;99.90;;;10.05;100.00;97869.63;5052020;28;20021;-38
2022/09/22 08:29:03;;;;;;;6.45;3.28;;;10.60;99.90;;;10.20;100.00;97873.59;5048156;28;20177;-38
2022/09/22 08:31:29;;;;;;;6.68;3.70;;;10.70;99.90;;;10.25;100.00;97852.41;5050924;28;20032;-38
2022/09/22 08:33:55;;;;;;;12.20;4.20;;;10.80;99.90;;;10.36;97.55;97865.31;5048410;28;20104;-38
2022/09/22 08:36:23;;;;;;;8.75;3.50;;;10.90;99.90;;;10.39;96.35;97863.44;5049288;28;20055;-38
2022/09/22 08:38:49;;;;;;;6.82;3.00;;;10.90;99.90;;;10.47;96.21;97858.78;5050444;28;20036;-38
2022/09/22 08:41:27;;;;;;;4.55;2.88;;;11.00;99.90;;;10.57;95.46;97867.31;5051838;28;20035;-38
2022/09/22 08:43:59;;;;;;;10.00;3.20;;;11.10;99.90;;;10.64;93.12;97860.06;5051838;28;20823;-38
2022/09/22 08:46:34;;;;;;;6.93;3.47;;;11.20;99.90;;;10.75;92.22;97863.28;5053296;28;20117;-38
2022/09/22 08:52:34;;;;;;;5.18;2.90;;;11.40;99.90;;;11.02;89.50;97863.34;5042219;28;20532;-38
2022/09/22 08:55:02;;;;;;;5.95;2.67;;;11.50;99.90;;;11.13;85.55;97863.84;5041828;28;20044;-38
2022/09/22 08:57:55;;;;;;;4.38;2.97;;;11.60;99.90;;;11.24;85.18;97869.63;5051767;28;20032;-38
2022/09/22 09:00:30;;;;;;;5.88;3.17;;;11.70;99.90;;;11.35;86.78;97866.66;5045035;28;20497;-38
2022/09/22 09:03:15;;;;;;;4.85;2.63;;;11.80;99.90;;;11.41;85.50;97868.22;5049752;28;20024;-38
2022/09/22 09:05:49;;;;;;;4.97;2.80;;;11.90;99.90;;;11.48;83.99;97864.47;5051128;28;20028;-38
2022/09/22 09:09:02;;;;;;;4.25;2.55;;;12.00;99.90;;;11.52;81.28;97873.16;5051664;28;20036;-38
2022/09/22 09:12:04;;;;;;;7.32;2.70;;;12.00;99.90;;;11.60;79.32;97864.06;5051855;28;20032;-38
2022/09/22 09:15:10;;;;;;;4.05;2.70;;;12.10;99.90;;;11.49;79.67;97838.94;5047059;28;20113;-38
2022/09/22 09:17:39;;;;;;;4.28;2.42;;;12.10;99.90;;;11.70;80.60;97866.38;5042473;28;20035;-38
2022/09/22 09:20:31;;;;;;;4.30;2.90;;;12.20;99.90;;;11.78;79.65;97869.66;5045954;28;20102;-38
2022/09/22 09:22:58;;;;;;;3.13;2.10;;;12.30;99.90;;;11.87;81.10;97868.47;5048857;28;20673;-38
2022/09/22 09:25:41;;;;;;;3.92;2.42;;;12.40;99.90;;;11.98;80.28;97861.06;5049499;28;20442;-38
2022/09/22 09:28:17;;;;;;;5.70;3.00;;;12.50;99.90;;;12.06;78.72;97859.00;5047987;28;20036;-38
2022/09/22 09:30:55;;;;;;;4.47;2.80;;;12.50;99.90;;;12.13;78.50;97860.53;5050400;28;20040;-38
2022/09/22 09:33:53;;;;;;;4.13;2.47;;;12.60;99.90;;;12.21;79.65;97857.59;5051011;28;20298;-38
2022/09/22 09:36:21;;;;;;;3.58;2.38;;;12.70;99.90;;;12.33;80.42;97846.56;5044381;28;20041;-39
2022/09/22 09:38:54;;;;;;;4.65;2.65;;;12.80;99.90;;;12.50;78.54;97843.28;5046048;28;20528;-38
2022/09/22 09:41:33;;;;;;;6.72;1.90;;;12.90;99.90;;;12.58;77.71;97850.94;5052490;28;20508;-38
2022/09/22 09:44:03;;;;;;;2.17;1.60;;;13.10;99.90;;;12.66;75.07;97840.91;5052620;28;20040;-38
2022/09/22 09:46:53;;;;;;;3.45;1.42;;;13.20;99.90;;;12.77;74.36;97845.81;5048225;28;20059;-38
2022/09/22 09:49:20;;;;;;;4.70;1.40;;;13.20;99.90;;;12.91;73.49;97840.84;5042477;28;20051;-38
2022/09/22 09:51:50;;;;;;;2.45;1.33;;;13.40;99.90;;;13.01;69.29;97846.66;5049728;28;20032;-38
2022/09/22 09:54:18;;;;;;;2.45;1.33;;;13.40;99.90;;;13.05;67.15;97850.03;5065573;28;20087;-38
2022/09/22 09:57:14;;;;;;;2.80;1.20;;;13.50;99.90;;;13.15;67.06;97852.25;5046255;28;20563;-38
2022/09/22 10:02:30;;;;;;;1.50;1.05;;;13.70;99.90;;;13.30;67.44;97834.88;5044725;28;20597;-38
2022/09/22 10:05:28;;;;;;;2.63;1.00;;;13.80;99.90;;;13.39;65.27;97844.25;5045531;28;20025;-38
2022/09/22 10:08:02;;;;;;;3.40;1.55;;;13.90;99.90;;;13.55;66.07;97840.03;5038690;28;20040;-38
2022/09/22 10:10:37;;;;;;;2.58;1.55;;;14.00;99.90;;;13.62;67.06;97845.97;5054330;28;20032;-38
2022/09/22 10:13:02;;;;;;;2.67;1.55;;;14.00;99.90;;;13.66;65.84;97844.88;5050184;28;20040;-38
2022/09/22 10:15:40;;;;;;;1.85;1.35;;;14.10;99.90;;;13.70;67.10;97837.69;5047500;28;20083;-38
2022/09/22 10:18:24;;;;;;;2.13;1.48;;;14.10;99.90;;;13.71;67.94;97834.97;5053482;28;20144;-38
2022/09/22 10:21:14;;;;;;;6.18;1.90;;;14.20;99.90;;;13.71;66.71;97839.38;5050200;28;20127;-38
2022/09/22 10:23:48;;;;;;;3.70;1.70;;;14.10;99.90;;;13.73;68.51;97837.56;5051525;28;20021;-38
2022/09/22 10:26:25;;;;;;;2.97;1.98;;;14.10;99.90;;;13.80;67.39;97833.72;5045147;28;21265;-38
2022/09/22 10:29:18;;;;;;;4.32;1.73;;;14.20;99.90;;;13.78;64.43;97832.88;5047030;28;20477;-38
2022/09/22 10:32:12;;;;;;;5.63;1.83;;;14.20;99.90;;;13.77;64.30;97827.69;5044134;28;20149;-38
2022/09/22 10:34:43;;;;;;;3.03;1.50;;;14.30;99.90;;;13.75;65.29;97839.19;5050715;28;20039;-38
2022/09/22 10:37:12;;;;;;;3.60;1.38;;;14.20;99.90;;;13.80;66.81;97825.75;5051239;28;20829;-38
2022/09/22 10:39:55;;;;;;;2.75;1.55;;;14.20;99.90;;;13.80;66.50;97820.47;5052935;28;20032;-38
2022/09/22 10:42:39;;;;;;;1.25;0.80;;;14.20;99.90;;;13.83;63.40;97816.78;5045349;28;20028;-38
2022/09/22 10:45:08;;;;;;;4.22;1.27;;;14.30;99.90;;;13.86;64.77;97812.22;5047783;28;20029;-39
2022/09/22 10:47:55;;;;;;;1.48;0.90;;;14.30;99.90;;;13.76;62.99;97794.97;5048060;28;20164;-38
2022/09/22 10:50:46;;;;;;;2.33;1.15;;;14.30;99.90;;;13.96;63.53;97817.13;5046491;28;20050;-38
2022/09/22 10:53:50;;;;;;;2.67;1.30;;;14.40;99.90;;;14.02;62.92;97809.75;5049122;28;20107;-39